Time;durP1;ratioP1;P1;durP2;ratioP2;P2;SDS_P1;SDS_P2;PMS_P1;PMS_P2;Temp;Humidity;BMP_temperature;BMP_pressure;BME280_temperature;BME280_humidity;BME280_pressure;Samples;Min_cycle;Max_cycle;Signal;HPM_P1;HPM_P2
2022/07/31 00:00:14;;;;;;;12.15;4.20;;;;;;;22.43;43.18;100144.59;4979536;28;20042;-83
2022/07/31 00:02:41;;;;;;;8.90;4.40;;;;;;;22.38;43.42;100145.19;5000691;28;20797;-84
2022/07/31 00:05:08;;;;;;;6.45;4.40;;;;;;;22.35;43.29;100145.63;4965375;28;20062;-84
2022/07/31 00:07:35;;;;;;;7.07;4.38;;;;;;;22.35;43.54;100148.31;4955186;28;20051;-84
2022/07/31 00:10:03;;;;;;;6.55;4.70;;;;;;;22.30;43.68;100148.94;4949741;28;20098;-84
2022/07/31 00:12:33;;;;;;;4.90;4.25;;;;;;;22.25;43.90;100139.78;4964107;28;20053;-84
2022/07/31 00:15:05;;;;;;;4.82;4.18;;;;;;;22.20;44.02;100134.16;4949254;28;20038;-82
2022/07/31 00:17:32;;;;;;;8.15;4.60;;;;;;;22.19;44.02;100135.16;4981039;28;20518;-84
2022/07/31 00:19:59;;;;;;;7.47;4.32;;;;;;;22.19;44.07;100133.31;5016134;28;20046;-82
2022/07/31 00:22:25;;;;;;;6.43;4.30;;;;;;;22.23;43.97;100137.25;4983169;28;20074;-82
2022/07/31 00:24:52;;;;;;;5.75;4.90;;;;;;;22.14;44.00;100132.25;4982639;28;20105;-82
2022/07/31 00:27:19;;;;;;;9.35;4.78;;;;;;;22.19;43.77;100136.03;5013025;28;20047;-82
2022/07/31 00:29:46;;;;;;;9.88;5.15;;;;;;;22.14;44.06;100127.66;4986482;28;20046;-82
2022/07/31 00:32:13;;;;;;;5.18;4.65;;;;;;;22.06;44.50;100122.44;4984159;28;20042;-82
2022/07/31 00:34:41;;;;;;;11.75;5.10;;;;;;;21.99;44.92;100129.69;4983791;28;20042;-82
2022/07/31 00:37:08;;;;;;;11.20;4.70;;;;;;;21.99;44.53;100135.09;4979747;28;20049;-83
2022/07/31 00:39:35;;;;;;;5.18;4.50;;;;;;;21.97;44.95;100134.47;4952378;28;20394;-82
2022/07/31 00:42:27;;;;;;;8.30;4.80;;;;;;;21.71;45.91;100133.31;4974124;28;20402;-82
2022/07/31 00:44:54;;;;;;;5.22;4.60;;;;;;;21.97;44.80;100142.56;4954421;28;20097;-83
2022/07/31 00:47:21;;;;;;;6.57;5.00;;;;;;;21.96;45.07;100133.63;4999227;28;20050;-82
2022/07/31 00:49:52;;;;;;;6.28;4.50;;;;;;;21.92;44.98;100134.25;4968675;28;20105;-82
2022/07/31 00:52:19;;;;;;;7.03;4.22;;;;;;;21.88;45.49;100137.34;4983813;28;20499;-85
2022/07/31 00:54:46;;;;;;;7.75;4.65;;;;;;;21.88;45.54;100142.75;4980095;28;20031;-85
2022/07/31 00:57:14;;;;;;;7.65;4.70;;;;;;;21.75;45.79;100133.75;4964779;28;20046;-84
2022/07/31 00:59:40;;;;;;;6.38;4.60;;;;;;;21.71;46.09;100132.50;4964451;28;20045;-84
2022/07/31 01:02:07;;;;;;;7.13;5.10;;;;;;;21.76;46.12;100125.44;4981330;28;20053;-85
2022/07/31 01:04:34;;;;;;;11.57;4.90;;;;;;;21.74;46.02;100124.81;4982708;28;20046;-85
2022/07/31 01:07:01;;;;;;;5.82;5.22;;;;;;;21.77;46.09;100126.28;4979607;28;20498;-85
2022/07/31 01:09:28;;;;;;;6.22;5.00;;;;;;;21.81;46.03;100119.44;5000646;28;20165;-85
2022/07/31 01:12:13;;;;;;;7.90;5.18;;;;;;;21.49;47.05;100116.38;4995240;28;20053;-86
2022/07/31 01:14:45;;;;;;;6.70;4.63;;;;;;;21.60;46.76;100121.22;4917329;28;20460;-85
2022/07/31 01:17:12;;;;;;;6.47;4.63;;;;;;;21.63;46.78;100125.41;4979823;28;20467;-85
2022/07/31 01:19:41;;;;;;;6.65;4.88;;;;;;;21.57;46.81;100118.91;4976648;28;20030;-85
2022/07/31 01:22:33;;;;;;;8.23;5.30;;;;;;;21.55;47.20;100129.09;4979119;28;20124;-85
2022/07/31 01:25:05;;;;;;;5.93;4.60;;;;;;;21.61;46.73;100122.88;4966289;28;20126;-84
2022/07/31 01:28:09;;;;;;;8.23;5.15;;;;;;;21.42;47.53;100121.75;4903184;28;20117;-84
2022/07/31 01:30:55;;;;;;;9.23;5.07;;;;;;;21.28;47.84;100127.25;4947841;28;20469;-85
2022/07/31 01:33:49;;;;;;;5.95;5.15;;;;;;;21.43;47.58;100131.53;4939665;28;20093;-85
2022/07/31 01:36:21;;;;;;;11.70;5.20;;;;;;;21.46;47.57;100123.00;4997731;28;20038;-82
2022/07/31 01:38:50;;;;;;;7.20;5.55;;;;;;;21.44;47.90;100127.78;4978379;28;20046;-82
2022/07/31 01:41:47;;;;;;;8.32;5.57;;;;;;;21.12;48.63;100117.59;4994558;28;20410;-82
2022/07/31 01:44:15;;;;;;;6.70;5.00;;;;;;;21.45;47.92;100117.81;4948369;28;20047;-82
2022/07/31 01:46:43;;;;;;;8.05;4.85;;;;;;;21.44;48.15;100118.84;4967839;28;20054;-82
2022/07/31 01:49:12;;;;;;;5.25;4.75;;;;;;;21.48;48.01;100122.00;4981171;28;20065;-82
2022/07/31 01:51:40;;;;;;;8.70;4.60;;;;;;;21.44;47.81;100116.13;4968508;28;20137;-82
2022/07/31 01:54:09;;;;;;;5.25;4.75;;;;;;;21.39;47.99;100118.59;4977528;28;20059;-84
2022/07/31 01:56:36;;;;;;;8.23;5.80;;;;;;;21.45;47.72;100115.94;4962863;28;20051;-84
2022/07/31 01:59:04;;;;;;;9.23;5.22;;;;;;;21.46;47.59;100116.78;4972030;28;20042;-83
2022/07/31 02:02:05;;;;;;;7.20;4.93;;;;;;;21.44;48.03;100113.44;4950370;28;20058;-81
2022/07/31 02:04:35;;;;;;;8.20;6.03;;;;;;;21.32;48.29;100107.75;4987424;28;20120;-82
2022/07/31 02:07:04;;;;;;;6.80;5.03;;;;;;;21.38;48.13;100111.50;4976454;28;20056;-82
2022/07/31 02:09:32;;;;;;;8.50;5.25;;;;;;;21.34;48.35;100108.34;4985515;28;20058;-82
2022/07/31 02:11:59;;;;;;;7.63;5.20;;;;;;;21.30;48.50;100109.81;4976922;28;20053;-81
2022/07/31 02:14:27;;;;;;;6.95;5.10;;;;;;;21.31;48.34;100113.34;4956406;28;20129;-81
2022/07/31 02:16:55;;;;;;;10.00;5.70;;;;;;;21.29;48.25;100104.59;4955579;28;20057;-81
2022/07/31 02:19:37;;;;;;;7.32;5.70;;;;;;;21.30;48.25;100111.69;4997760;28;20048;-82
2022/07/31 02:22:06;;;;;;;6.43;5.53;;;;;;;21.32;48.16;100107.75;4997730;28;20042;-81
2022/07/31 02:24:33;;;;;;;10.15;5.20;;;;;;;21.26;48.55;100108.53;4974202;28;20134;-81
2022/07/31 02:27:00;;;;;;;5.97;5.22;;;;;;;21.26;48.41;100103.13;4951234;28;20491;-81
2022/07/31 02:29:30;;;;;;;8.60;5.25;;;;;;;21.16;48.85;100108.06;4964693;28;20043;-81
2022/07/31 02:31:57;;;;;;;6.65;5.00;;;;;;;21.18;48.81;100106.00;4959753;28;20050;-81
2022/07/31 02:34:31;;;;;;;7.80;5.40;;;;;;;21.15;48.91;100107.22;4950917;28;20070;-85
2022/07/31 02:36:59;;;;;;;6.60;5.82;;;;;;;21.09;49.05;100113.44;4952717;28;20046;-84
2022/07/31 02:39:26;;;;;;;8.13;5.68;;;;;;;21.06;49.31;100110.25;4964422;28;20077;-84
2022/07/31 02:41:59;;;;;;;7.60;5.55;;;;;;;21.12;49.11;100104.09;4985109;28;20042;-82
2022/07/31 02:44:29;;;;;;;10.05;6.00;;;;;;;21.02;49.47;100112.53;4985515;28;20384;-82
2022/07/31 02:46:58;;;;;;;11.60;5.30;;;;;;;21.00;49.84;100111.91;4970469;28;20450;-82
2022/07/31 02:49:26;;;;;;;5.82;5.28;;;;;;;21.01;49.59;100103.63;4965051;28;20441;-82
2022/07/31 02:51:54;;;;;;;5.93;5.30;;;;;;;20.99;49.88;100102.97;4986602;28;20054;-82
2022/07/31 02:54:23;;;;;;;7.93;5.82;;;;;;;20.99;49.90;100094.88;5000810;28;20129;-82
2022/07/31 02:56:52;;;;;;;8.45;5.28;;;;;;;21.00;49.90;100096.53;4971559;28;20053;-83
2022/07/31 02:59:20;;;;;;;9.27;6.03;;;;;;;20.99;50.05;100096.75;4966815;28;20038;-84
2022/07/31 03:01:57;;;;;;;8.70;5.72;;;;;;;20.94;50.23;100091.94;4999063;28;20066;-82
2022/07/31 03:04:25;;;;;;;7.00;5.45;;;;;;;20.92;50.11;100088.59;5000854;28;20105;-81
2022/07/31 03:06:53;;;;;;;6.53;5.80;;;;;;;20.92;50.26;100087.75;4979586;28;20116;-81
2022/07/31 03:09:19;;;;;;;8.05;6.32;;;;;;;20.86;50.77;100086.66;4984253;28;20050;-81
2022/07/31 03:11:50;;;;;;;6.38;5.53;;;;;;;20.77;50.91;100083.28;4986122;28;20046;-82
2022/07/31 03:14:18;;;;;;;7.20;5.95;;;;;;;20.72;51.37;100084.91;4986609;28;21262;-85
2022/07/31 03:16:45;;;;;;;7.53;6.05;;;;;;;20.74;51.14;100093.66;4984698;28;20084;-85
2022/07/31 03:19:12;;;;;;;9.55;6.20;;;;;;;20.68;51.21;100092.53;4960419;28;20050;-82
2022/07/31 03:21:39;;;;;;;10.30;6.07;;;;;;;20.72;51.43;100093.81;4952371;28;20501;-82
2022/07/31 03:24:06;;;;;;;8.55;5.88;;;;;;;20.72;51.16;100098.41;4983000;28;20155;-82
2022/07/31 03:26:34;;;;;;;8.77;5.45;;;;;;;20.60;51.75;100092.69;4969282;28;20046;-82
2022/07/31 03:29:01;;;;;;;6.50;5.40;;;;;;;20.58;51.68;100094.75;4990132;28;20124;-81
2022/07/31 03:31:29;;;;;;;6.90;5.25;;;;;;;20.52;51.96;100101.72;4956969;28;20082;-83
2022/07/31 03:33:56;;;;;;;10.30;6.30;;;;;;;20.50;52.09;100094.84;4949506;28;20088;-83
2022/07/31 03:36:23;;;;;;;6.13;5.63;;;;;;;20.55;52.05;100100.53;4978558;28;20043;-83
2022/07/31 03:38:50;;;;;;;6.82;6.07;;;;;;;20.51;52.26;100104.63;4969547;28;20067;-83
2022/07/31 03:41:23;;;;;;;7.55;6.03;;;;;;;20.52;52.02;100103.59;4968402;28;21044;-84
2022/07/31 03:43:51;;;;;;;7.07;5.95;;;;;;;20.53;52.20;100098.00;4967437;28;20046;-84
2022/07/31 03:46:21;;;;;;;8.88;6.43;;;;;;;20.41;52.59;100094.16;4985188;28;20038;-84
2022/07/31 03:48:50;;;;;;;9.60;6.20;;;;;;;20.55;51.83;100095.13;4968373;28;20046;-84
2022/07/31 03:51:19;;;;;;;6.55;5.75;;;;;;;20.48;52.08;100092.38;4962540;28;20039;-82
2022/07/31 03:53:47;;;;;;;8.20;6.32;;;;;;;20.51;52.11;100091.97;4977618;28;20070;-81
2022/07/31 03:56:34;;;;;;;10.07;6.57;;;;;;;20.42;52.46;100097.69;4949458;28;20208;-81
2022/07/31 03:59:02;;;;;;;6.70;5.60;;;;;;;20.47;52.22;100106.88;4945832;28;20051;-81
2022/07/31 04:01:30;;;;;;;8.40;6.22;;;;;;;20.51;52.21;100105.47;4936296;28;20414;-83
2022/07/31 04:04:25;;;;;;;8.05;6.55;;;;;;;20.42;52.56;100101.22;4928712;28;20884;-83
2022/07/31 04:07:00;;;;;;;7.63;6.28;;;;;;;20.39;52.61;100099.75;4979286;28;20043;-82
2022/07/31 04:09:28;;;;;;;6.63;5.95;;;;;;;20.39;52.47;100102.44;4984425;28;20042;-83
2022/07/31 04:11:54;;;;;;;8.85;6.22;;;;;;;20.36;52.52;100105.53;4970361;28;20555;-84
2022/07/31 04:14:22;;;;;;;8.30;5.93;;;;;;;20.29;52.87;100112.72;4971012;28;20058;-84
2022/07/31 04:16:48;;;;;;;7.97;6.35;;;;;;;20.38;52.93;100111.56;4969233;28;20687;-83
2022/07/31 04:19:16;;;;;;;7.65;6.15;;;;;;;20.42;52.82;100112.00;4988361;28;20042;-83
2022/07/31 04:21:42;;;;;;;9.30;5.97;;;;;;;20.33;53.19;100115.88;4964060;28;20059;-83
2022/07/31 04:24:12;;;;;;;7.45;5.97;;;;;;;20.47;52.53;100119.53;4984308;28;20145;-84
2022/07/31 04:26:59;;;;;;;9.00;6.10;;;;;;;20.76;52.71;100121.25;4973213;28;20662;-83
2022/07/31 04:29:34;;;;;;;6.78;6.03;;;;;;;21.50;52.21;100114.50;4993583;28;20091;-82
2022/07/31 04:32:00;;;;;;;6.93;6.18;;;;;;;22.15;50.66;100115.78;4968899;28;20050;-82
2022/07/31 04:34:32;;;;;;;8.43;5.63;;;;;;;22.49;49.27;100119.41;4968043;28;20038;-82
2022/07/31 04:36:59;;;;;;;6.93;5.88;;;;;;;23.19;47.92;100117.13;4996887;28;20058;-82
2022/07/31 04:39:26;;;;;;;8.55;6.35;;;;;;;23.27;47.32;100119.59;5001637;28;20054;-82
2022/07/31 04:41:54;;;;;;;7.78;5.78;;;;;;;22.68;48.61;100121.31;4952145;28;20051;-82
2022/07/31 04:44:22;;;;;;;7.70;5.75;;;;;;;22.05;49.63;100118.88;5000408;28;20195;-82
2022/07/31 04:46:57;;;;;;;6.85;5.82;;;;;;;21.53;50.64;100116.81;4984951;28;20057;-82
2022/07/31 04:49:24;;;;;;;9.93;6.40;;;;;;;21.36;50.88;100118.97;5000841;28;20565;-82
2022/07/31 04:51:51;;;;;;;7.20;6.50;;;;;;;21.12;51.71;100128.41;4953453;28;20441;-82
2022/07/31 04:54:18;;;;;;;9.35;5.70;;;;;;;20.99;52.09;100121.03;5013172;28;20052;-82
2022/07/31 04:56:47;;;;;;;13.38;6.38;;;;;;;20.96;52.25;100126.81;4998688;28;20493;-81
2022/07/31 04:59:16;;;;;;;7.53;6.30;;;;;;;20.93;52.37;100119.94;4962153;28;20096;-82
2022/07/31 05:01:47;;;;;;;8.00;6.97;;;;;;;20.95;51.97;100125.16;4968967;28;20121;-82
2022/07/31 05:04:17;;;;;;;7.22;5.93;;;;;;;20.93;51.81;100127.22;4969027;28;20042;-82
2022/07/31 05:06:50;;;;;;;7.50;6.30;;;;;;;20.79;52.84;100124.41;4980751;28;20069;-82
2022/07/31 05:09:27;;;;;;;8.27;5.63;;;;;;;20.82;52.69;100123.19;4947707;28;20057;-81
2022/07/31 05:11:58;;;;;;;7.10;6.40;;;;;;;20.89;52.48;100125.91;4935494;28;20492;-81
2022/07/31 05:14:26;;;;;;;8.52;6.85;;;;;;;20.87;52.74;100133.41;4980408;28;21219;-81
2022/07/31 05:16:53;;;;;;;11.02;7.55;;;;;;;20.87;52.48;100131.53;4999202;28;20077;-83
2022/07/31 05:19:20;;;;;;;7.47;6.43;;;;;;;20.80;52.75;100131.47;4952261;28;20042;-84
2022/07/31 05:22:05;;;;;;;11.13;6.40;;;;;;;20.76;52.33;100130.19;4964763;28;20092;-84
2022/07/31 05:24:32;;;;;;;8.73;6.35;;;;;;;20.68;53.03;100132.19;4981084;28;20046;-84
2022/07/31 05:27:09;;;;;;;6.93;6.25;;;;;;;20.70;53.12;100130.13;4965488;28;20783;-85
2022/07/31 05:29:38;;;;;;;7.68;6.93;;;;;;;20.74;52.83;100134.13;4980507;28;20042;-85
2022/07/31 05:32:05;;;;;;;8.50;6.53;;;;;;;20.70;52.87;100133.66;4979870;28;20558;-84
2022/07/31 05:34:33;;;;;;;9.30;6.30;;;;;;;20.71;53.03;100134.50;4945401;28;20133;-85
2022/07/31 05:37:01;;;;;;;11.63;6.88;;;;;;;20.74;53.10;100134.97;4979883;28;20058;-81
2022/07/31 05:39:30;;;;;;;9.43;7.22;;;;;;;20.85;52.63;100136.28;4974927;28;20054;-81
2022/07/31 05:42:15;;;;;;;10.60;6.63;;;;;;;20.83;53.05;100142.91;4931811;28;20487;-81
2022/07/31 05:45:05;;;;;;;8.93;6.78;;;;;;;20.91;52.73;100140.88;4951547;28;20403;-80
2022/07/31 05:47:33;;;;;;;8.32;5.90;;;;;;;20.90;52.92;100136.53;4932007;28;20046;-81
2022/07/31 05:50:07;;;;;;;10.30;6.50;;;;;;;20.99;52.78;100135.38;4948584;28;20053;-80
2022/07/31 05:52:34;;;;;;;7.85;6.70;;;;;;;21.01;52.43;100135.16;4959174;28;20055;-84
2022/07/31 05:55:26;;;;;;;9.70;6.32;;;;;;;20.98;52.26;100135.56;4924866;28;20524;-84
2022/07/31 05:57:53;;;;;;;6.72;5.97;;;;;;;20.91;52.60;100132.78;4979844;28;20042;-84
2022/07/31 06:00:20;;;;;;;7.95;6.47;;;;;;;20.98;52.64;100130.16;4957261;28;20046;-84
2022/07/31 06:02:48;;;;;;;8.20;6.57;;;;;;;21.00;52.72;100133.50;4974845;28;20121;-84
2022/07/31 06:05:33;;;;;;;6.90;6.10;;;;;;;20.99;52.92;100129.97;4976885;28;20124;-84
2022/07/31 06:08:00;;;;;;;8.27;6.25;;;;;;;21.02;52.87;100129.56;4999088;28;20442;-84
2022/07/31 06:10:32;;;;;;;;;;;;;;;20.70;54.65;100140.94;4967181;28;20043;-84
2022/07/31 06:13:00;;;;;;;6.70;6.00;;;;;;;21.06;53.09;100139.97;5012064;28;19933;-85
2022/07/31 06:15:27;;;;;;;11.23;7.80;;;;;;;21.03;53.01;100143.91;4990995;28;20053;-84
2022/07/31 06:18:02;;;;;;;8.75;6.78;;;;;;;20.97;53.42;100142.00;4933351;28;20058;-84
2022/07/31 06:20:30;;;;;;;8.70;6.55;;;;;;;21.02;53.23;100148.47;4952576;28;20066;-84
2022/07/31 06:22:57;;;;;;;8.55;6.15;;;;;;;21.07;53.36;100141.66;4968348;28;20042;-84
2022/07/31 06:25:28;;;;;;;12.20;6.82;;;;;;;21.08;53.20;100149.53;4977728;28;20049;-84
2022/07/31 06:28:04;;;;;;;7.50;6.13;;;;;;;21.12;53.42;100133.78;4946530;28;20046;-83
2022/07/31 06:30:37;;;;;;;9.32;6.53;;;;;;;21.18;53.04;100138.41;4982782;28;20043;-84
2022/07/31 06:33:03;;;;;;;8.18;6.30;;;;;;;21.18;53.20;100136.53;4978741;28;20491;-84
2022/07/31 06:35:35;;;;;;;8.43;6.55;;;;;;;21.26;53.15;100143.63;4982076;28;20057;-83
2022/07/31 06:38:48;;;;;;;6.93;6.32;;;;;;;21.17;54.01;100148.38;4948884;28;20062;-85
2022/07/31 06:44:28;;;;;;;9.60;6.50;;;;;;;21.28;53.20;100151.56;4956930;28;20118;-83
2022/07/31 06:47:18;;;;;;;8.15;6.10;;;;;;;21.34;52.98;100145.34;4954382;28;20038;-84
2022/07/31 06:50:04;;;;;;;7.60;6.45;;;;;;;21.40;52.87;100145.44;4982430;28;20478;-83
2022/07/31 06:52:40;;;;;;;7.38;6.43;;;;;;;21.42;53.01;100147.91;4968574;28;20136;-83
2022/07/31 06:55:07;;;;;;;15.25;6.93;;;;;;;21.37;53.11;100155.75;4997004;28;20990;-82
2022/07/31 06:57:34;;;;;;;10.52;7.25;;;;;;;21.48;52.94;100151.72;4936189;28;20094;-81
2022/07/31 07:00:00;;;;;;;9.40;7.05;;;;;;;21.41;52.95;100146.25;5002259;28;20053;-83
2022/07/31 07:02:33;;;;;;;8.10;6.70;;;;;;;21.43;52.89;100158.53;4929113;28;20451;-83
2022/07/31 07:05:00;;;;;;;6.97;6.38;;;;;;;21.51;52.60;100154.00;4969440;28;20042;-83
2022/07/31 07:07:35;;;;;;;7.97;6.47;;;;;;;21.56;52.88;100156.94;4999568;28;20065;-84
2022/07/31 07:10:04;;;;;;;8.40;5.63;;;;;;;21.62;52.77;100156.13;4985542;28;20047;-83
2022/07/31 07:13:04;;;;;;;10.25;6.78;;;;;;;21.64;52.48;100151.38;4957562;28;20993;-84
2022/07/31 07:15:34;;;;;;;7.32;6.63;;;;;;;21.64;52.43;100149.50;4952944;28;20054;-85
2022/07/31 07:18:03;;;;;;;8.70;6.03;;;;;;;21.59;52.87;100154.66;4934583;28;20046;-82
2022/07/31 07:20:38;;;;;;;8.15;7.35;;;;;;;21.58;52.83;100152.19;4952709;28;20043;-81
2022/07/31 07:23:05;;;;;;;9.88;6.90;;;;;;;21.62;52.52;100154.25;4945219;28;20502;-81
2022/07/31 07:25:48;;;;;;;11.43;6.80;;;;;;;21.56;52.55;100144.25;4968356;28;20375;-81
2022/07/31 07:28:15;;;;;;;14.18;7.35;;;;;;;21.67;52.46;100151.78;4983859;28;20038;-81
2022/07/31 07:30:57;;;;;;;;;;;;;;;21.36;53.14;100143.28;4972285;28;20049;-82
2022/07/31 07:33:24;;;;;;;8.73;6.57;;;;;;;21.65;52.32;100140.38;4986219;28;19926;-84
2022/07/31 07:36:11;;;;;;;9.23;6.47;;;;;;;21.72;52.13;100139.56;4988270;28;20050;-83
2022/07/31 07:38:59;;;;;;;8.82;6.50;;;;;;;21.77;52.16;100131.69;4962050;28;20054;-83
2022/07/31 07:41:28;;;;;;;9.35;7.00;;;;;;;21.78;52.23;100133.34;5000092;28;20410;-83
2022/07/31 07:43:55;;;;;;;6.80;6.18;;;;;;;21.83;52.12;100130.84;4967898;28;20136;-83
2022/07/31 07:46:26;;;;;;;15.45;6.97;;;;;;;21.92;51.89;100137.78;4968928;28;20050;-84
2022/07/31 07:48:58;;;;;;;8.45;6.82;;;;;;;21.93;52.04;100142.16;4975198;28;20141;-83
2022/07/31 07:51:44;;;;;;;7.45;6.75;;;;;;;21.90;52.16;100142.53;4980546;28;20042;-83
2022/07/31 07:54:38;;;;;;;8.98;6.55;;;;;;;21.86;51.94;100141.28;4944255;28;20051;-85
2022/07/31 07:57:20;;;;;;;8.68;7.03;;;;;;;21.94;52.32;100143.81;4946632;28;20401;-85
2022/07/31 07:59:52;;;;;;;;;;;;;;;21.79;52.56;100137.72;4984203;28;20046;-83
2022/07/31 08:02:37;;;;;;;9.50;6.32;;;;;;;22.03;51.83;100147.16;5010530;28;19926;-85
2022/07/31 08:05:06;;;;;;;11.90;6.60;;;;;;;22.04;51.70;100141.56;4981780;28;20050;-86
2022/07/31 08:07:37;;;;;;;8.40;6.65;;;;;;;22.11;51.85;100144.28;4971076;28;20050;-85
2022/07/31 08:10:27;;;;;;;10.40;6.57;;;;;;;22.24;51.50;100136.25;4982340;28;20050;-83
2022/07/31 08:13:02;;;;;;;9.07;6.50;;;;;;;22.37;51.25;100137.31;4973230;28;20137;-84
2022/07/31 08:15:47;;;;;;;6.70;6.00;;;;;;;22.48;51.18;100126.69;4935168;28;20633;-83
2022/07/31 08:18:31;;;;;;;8.38;6.88;;;;;;;22.56;51.39;100122.94;4933458;28;20474;-83
2022/07/31 08:20:58;;;;;;;9.38;6.57;;;;;;;22.60;51.18;100107.16;4984718;28;20077;-83
2022/07/31 08:23:25;;;;;;;9.50;6.20;;;;;;;22.63;50.76;100115.69;4967093;28;20445;-83
2022/07/31 08:25:52;;;;;;;8.05;6.60;;;;;;;22.66;51.18;100101.72;4981104;28;21200;-83
2022/07/31 08:28:23;;;;;;;8.60;6.75;;;;;;;22.71;50.94;100109.22;4953846;28;20119;-83
2022/07/31 08:30:51;;;;;;;8.75;6.53;;;;;;;22.76;50.44;100104.00;4973461;28;20049;-83
2022/07/31 08:33:20;;;;;;;6.43;5.60;;;;;;;22.78;50.52;100111.94;4953032;28;20495;-84
2022/07/31 08:36:23;;;;;;;8.38;6.55;;;;;;;22.69;50.85;100109.41;4968310;28;20165;-83
2022/07/31 08:38:50;;;;;;;7.07;6.32;;;;;;;22.82;50.19;100114.03;4949415;28;20056;-84
2022/07/31 08:41:38;;;;;;;7.55;6.05;;;;;;;22.85;50.15;100108.19;4982464;28;20494;-81
2022/07/31 08:44:05;;;;;;;7.70;6.47;;;;;;;22.84;50.55;100119.22;4967052;28;20050;-83
2022/07/31 08:46:37;;;;;;;9.48;5.82;;;;;;;22.84;50.22;100105.69;4998199;28;20054;-83
2022/07/31 08:49:06;;;;;;;6.40;5.75;;;;;;;22.93;50.15;100107.13;4985615;28;20106;-84
2022/07/31 08:51:36;;;;;;;6.80;6.05;;;;;;;23.00;50.65;100102.59;4953445;28;20065;-83
2022/07/31 08:54:35;;;;;;;6.57;5.70;;;;;;;23.05;50.42;100091.09;4966474;28;20627;-81
2022/07/31 08:57:03;;;;;;;7.00;5.50;;;;;;;23.05;50.50;100097.38;4961819;28;20066;-80
2022/07/31 08:59:42;;;;;;;10.15;5.72;;;;;;;23.07;50.64;100095.25;4953733;28;20554;-80
2022/07/31 09:02:10;;;;;;;6.97;5.18;;;;;;;23.13;50.27;100096.31;4972592;28;20061;-81
2022/07/31 09:04:49;;;;;;;8.68;6.40;;;;;;;23.14;50.13;100092.53;4978160;28;20058;-80
2022/07/31 09:07:19;;;;;;;8.25;6.55;;;;;;;23.19;50.00;100090.84;4950741;28;20051;-84
2022/07/31 09:09:46;;;;;;;8.20;6.00;;;;;;;23.24;50.44;100083.97;4950632;28;20042;-84
2022/07/31 09:12:32;;;;;;;6.20;5.47;;;;;;;23.22;50.42;100077.94;4967199;28;20081;-85
2022/07/31 09:15:26;;;;;;;6.28;5.68;;;;;;;23.23;50.01;100069.63;4942291;28;20054;-86
2022/07/31 09:17:53;;;;;;;6.30;5.65;;;;;;;23.31;50.08;100074.78;4941059;28;20830;-86
2022/07/31 09:20:24;;;;;;;8.07;6.00;;;;;;;23.35;49.75;100065.16;4949101;28;20109;-86
2022/07/31 09:23:04;;;;;;;9.18;5.97;;;;;;;23.36;50.45;100064.16;4945086;28;20047;-86
2022/07/31 09:25:33;;;;;;;8.73;5.72;;;;;;;23.48;50.25;100064.28;4976522;28;20723;-86
2022/07/31 09:28:03;;;;;;;7.60;5.80;;;;;;;23.52;49.99;100060.13;4950762;28;20039;-86
2022/07/31 09:30:31;;;;;;;9.02;5.57;;;;;;;23.59;50.01;100054.69;4939119;28;20043;-85
2022/07/31 09:33:14;;;;;;;6.05;4.95;;;;;;;23.62;50.12;100051.53;4981343;28;20050;-86
2022/07/31 09:35:58;;;;;;;7.13;6.18;;;;;;;23.78;49.83;100047.50;4987138;28;20053;-86
2022/07/31 09:38:34;;;;;;;8.02;5.20;;;;;;;23.80;49.85;100046.25;4994946;28;20450;-86
2022/07/31 09:41:36;;;;;;;8.23;5.82;;;;;;;23.89;49.53;100037.84;4970388;28;20051;-87
2022/07/31 09:44:47;;;;;;;13.05;6.57;;;;;;;23.91;49.10;100043.88;4943927;28;20509;-85
2022/07/31 09:47:27;;;;;;;7.45;5.28;;;;;;;23.92;49.05;100034.72;4962789;28;20070;-86
2022/07/31 09:49:59;;;;;;;7.40;4.90;;;;;;;24.03;49.20;100028.59;4942571;28;20177;-85
2022/07/31 09:52:27;;;;;;;9.63;5.45;;;;;;;24.08;48.61;100027.94;4989083;28;20047;-85
2022/07/31 09:55:00;;;;;;;11.15;5.53;;;;;;;24.13;48.99;100036.25;4965986;28;20550;-86
2022/07/31 09:57:28;;;;;;;6.13;5.13;;;;;;;24.18;48.18;100025.56;4947997;28;20046;-85
2022/07/31 09:59:58;;;;;;;5.93;4.82;;;;;;;24.21;48.01;100025.13;4961274;28;20129;-80
2022/07/31 10:02:26;;;;;;;5.18;4.50;;;;;;;24.23;47.26;100023.03;4961240;28;20514;-81
2022/07/31 10:04:55;;;;;;;5.85;4.80;;;;;;;24.20;47.27;100020.75;4970219;28;20666;-80
2022/07/31 10:07:26;;;;;;;5.68;4.65;;;;;;;24.24;46.98;100022.78;4997137;28;20049;-83
2022/07/31 10:10:06;;;;;;;;;;;;;;;24.22;46.71;100011.34;4934279;28;20113;-83
2022/07/31 10:12:42;;;;;;;4.97;4.22;;;;;;;24.41;44.96;100012.22;5012201;28;19925;-85
2022/07/31 10:15:11;;;;;;;3.75;2.97;;;;;;;24.49;45.20;100008.41;4944041;28;20046;-84
2022/07/31 10:17:43;;;;;;;4.30;3.35;;;;;;;24.59;45.21;100007.91;4953340;28;20046;-83
2022/07/31 10:20:41;;;;;;;4.88;2.90;;;;;;;24.69;43.77;99997.38;4963041;28;20046;-85
2022/07/31 10:23:24;;;;;;;4.90;2.83;;;;;;;24.77;43.24;99999.78;5012044;28;20054;-84
2022/07/31 10:25:56;;;;;;;5.32;3.00;;;;;;;24.82;42.29;99997.22;4984295;28;20043;-84
2022/07/31 10:28:24;;;;;;;5.32;2.90;;;;;;;24.87;42.63;99991.13;4952794;28;20061;-85
2022/07/31 10:30:52;;;;;;;6.10;2.97;;;;;;;24.92;42.37;99985.84;5003239;28;20046;-84
2022/07/31 10:33:20;;;;;;;5.05;2.92;;;;;;;24.99;42.08;99983.06;4953084;28;20046;-84
2022/07/31 10:36:33;;;;;;;5.13;3.08;;;;;;;25.03;41.77;99973.38;4991099;28;20050;-85
2022/07/31 10:39:38;;;;;;;7.72;3.45;;;;;;;25.15;41.11;99981.63;4969411;28;20137;-84
2022/07/31 10:42:34;;;;;;;4.13;2.80;;;;;;;25.14;41.23;99972.63;4988849;28;20133;-83
2022/07/31 10:45:09;;;;;;;3.35;2.92;;;;;;;25.25;40.61;99977.31;4969238;28;20042;-84
2022/07/31 10:48:00;;;;;;;4.45;3.30;;;;;;;25.33;41.32;99968.84;4951940;28;20141;-84
2022/07/31 10:51:08;;;;;;;7.10;3.08;;;;;;;25.33;40.81;99974.28;4952061;28;20050;-83
2022/07/31 10:54:01;;;;;;;7.18;3.00;;;;;;;25.32;40.95;99967.19;4932589;28;20447;-84
2022/07/31 10:56:47;;;;;;;6.50;3.40;;;;;;;25.36;41.20;99966.75;4964118;28;20039;-84
2022/07/31 10:59:46;;;;;;;4.25;3.67;;;;;;;25.37;41.30;99957.53;4911552;28;20049;-84
2022/07/31 11:02:50;;;;;;;4.22;3.38;;;;;;;25.35;41.56;99952.31;4923304;28;21538;-83
2022/07/31 11:05:29;;;;;;;5.05;3.25;;;;;;;25.33;40.12;99955.25;4936711;28;20039;-80
2022/07/31 11:08:43;;;;;;;6.57;2.72;;;;;;;25.31;41.13;99951.94;4940433;28;20065;-84
2022/07/31 11:11:34;;;;;;;4.72;3.88;;;;;;;25.33;41.01;99947.09;4989772;28;20054;-84
2022/07/31 11:14:34;;;;;;;5.78;3.28;;;;;;;25.31;40.45;99945.69;4974524;28;20398;-84
2022/07/31 11:17:32;;;;;;;4.47;3.10;;;;;;;25.34;40.08;99956.13;4928300;28;20523;-85
2022/07/31 11:20:30;;;;;;;5.40;3.10;;;;;;;25.40;40.91;99935.31;4933267;28;20042;-84
2022/07/31 11:23:00;;;;;;;7.05;3.30;;;;;;;25.47;40.55;99936.06;4968511;28;20060;-85
2022/07/31 11:25:28;;;;;;;4.35;3.22;;;;;;;25.49;40.80;99940.22;4984664;28;20433;-82
2022/07/31 11:28:10;;;;;;;5.88;3.65;;;;;;;25.52;39.63;99939.75;4976884;28;20042;-82
2022/07/31 11:30:49;;;;;;;5.80;3.90;;;;;;;25.52;39.75;99928.88;4997838;28;20046;-83
2022/07/31 11:33:39;;;;;;;3.90;2.88;;;;;;;25.52;40.58;99934.31;4973581;28;20042;-83
2022/07/31 11:36:10;;;;;;;4.65;3.13;;;;;;;25.63;40.54;99924.53;5012509;28;20142;-83
2022/07/31 11:38:39;;;;;;;7.68;3.40;;;;;;;25.71;40.20;99916.03;4983310;28;20046;-82
2022/07/31 11:41:08;;;;;;;4.40;3.33;;;;;;;25.75;40.56;99921.84;4969690;28;20134;-83
2022/07/31 11:43:56;;;;;;;6.40;3.60;;;;;;;25.81;40.02;99917.34;4966179;28;20049;-83
2022/07/31 11:46:27;;;;;;;4.22;3.70;;;;;;;25.86;39.65;99910.19;4961518;28;20061;-83
2022/07/31 11:48:55;;;;;;;5.07;3.40;;;;;;;25.95;38.89;99908.78;4965154;28;20054;-83
2022/07/31 11:51:23;;;;;;;7.22;3.67;;;;;;;26.03;39.08;99904.88;4952225;28;20059;-83
2022/07/31 11:53:50;;;;;;;6.30;3.63;;;;;;;26.09;38.76;99894.94;4962710;28;20444;-83
2022/07/31 11:56:24;;;;;;;4.57;3.53;;;;;;;26.11;39.11;99899.09;4947417;28;20078;-82
2022/07/31 11:58:53;;;;;;;4.85;3.63;;;;;;;26.18;38.98;99882.63;4959024;28;20461;-82
2022/07/31 12:01:25;;;;;;;7.50;4.13;;;;;;;26.19;38.54;99887.00;4985044;28;20360;-82